Time;durP1;ratioP1;P1;durP2;ratioP2;P2;SDS_P1;SDS_P2;PMS_P1;PMS_P2;Temp;Humidity;BMP_temperature;BMP_pressure;BME280_temperature;BME280_humidity;BME280_pressure;Samples;Min_cycle;Max_cycle;Signal;HPM_P1;HPM_P2
2022/02/15 00:01:41;;;;;;;18.00;13.77;;;8.00;99.90;;;;;;5011431;28;20053;-46
2022/02/15 00:04:08;;;;;;;18.05;13.15;;;;;;;;;;5028986;28;20047;-48
2022/02/15 00:06:34;;;;;;;18.55;13.30;;;;;;;;;;5014259;28;20037;-49
2022/02/15 00:09:01;;;;;;;20.27;12.40;;;;;;;;;;5016171;28;20041;-48
2022/02/15 00:11:26;;;;;;;18.50;12.18;;;8.10;99.90;;;;;;5012007;28;20073;-48
2022/02/15 00:13:52;;;;;;;13.95;11.27;;;8.00;99.90;;;;;;5016359;28;20374;-50
2022/02/15 00:16:18;;;;;;;16.67;11.77;;;8.00;99.90;;;;;;5010542;28;20057;-48
2022/02/15 00:18:44;;;;;;;17.08;11.82;;;7.90;99.90;;;;;;5013539;28;20029;-48
2022/02/15 00:21:09;;;;;;;17.27;12.25;;;8.00;99.90;;;;;;5010897;28;20030;-47
2022/02/15 00:23:35;;;;;;;15.38;11.10;;;7.90;99.90;;;;;;5013890;28;20065;-48
2022/02/15 00:26:01;;;;;;;18.00;11.35;;;7.90;99.90;;;;;;5013895;28;20112;-46
2022/02/15 00:28:27;;;;;;;15.55;11.57;;;7.80;99.90;;;;;;5014871;28;20044;-48
2022/02/15 00:30:53;;;;;;;13.73;9.30;;;7.70;99.90;;;;;;5010041;28;20037;-47
2022/02/15 00:33:19;;;;;;;16.58;11.30;;;7.50;99.90;;;;;;5009313;28;20050;-47
2022/02/15 00:35:46;;;;;;;16.95;11.13;;;7.50;99.90;;;;;;5014426;28;20034;-48
2022/02/15 00:38:12;;;;;;;17.60;12.65;;;7.40;99.90;;;;;;5010585;28;20164;-46
2022/02/15 00:40:38;;;;;;;9.32;7.22;;;7.40;99.90;;;;;;5011330;28;20491;-49
2022/02/15 00:43:04;;;;;;;11.82;7.22;;;7.30;99.90;;;;;;5010873;28;20029;-49
2022/02/15 00:45:30;;;;;;;11.30;8.00;;;7.20;99.90;;;;;;5013828;28;20029;-49
2022/02/15 00:47:56;;;;;;;11.80;7.18;;;7.20;99.90;;;;;;5026970;28;20492;-50
2022/02/15 00:50:22;;;;;;;9.80;6.45;;;7.10;99.90;;;;;;5011367;28;20046;-50
2022/02/15 00:52:47;;;;;;;12.15;7.38;;;7.00;99.90;;;;;;4979642;28;20033;-46
2022/02/15 00:55:13;;;;;;;8.98;6.20;;;7.10;99.90;;;;;;5008630;28;20498;-48
2022/02/15 00:57:43;;;;;;;12.23;7.55;;;7.10;99.90;;;;;;5025097;28;20045;-46
2022/02/15 01:00:11;;;;;;;11.85;7.60;;;7.20;99.90;;;;;;5013393;28;20513;-49
2022/02/15 01:02:37;;;;;;;12.23;7.68;;;7.30;99.90;;;;;;5010924;28;20056;-47
2022/02/15 01:05:04;;;;;;;10.27;6.93;;;7.30;99.90;;;;;;5009891;28;20137;-50
2022/02/15 01:07:31;;;;;;;12.10;7.10;;;7.40;99.90;;;;;;5012275;28;20060;-49
2022/02/15 01:09:57;;;;;;;12.90;7.15;;;7.50;99.90;;;;;;5012099;28;20113;-45
2022/02/15 01:12:24;;;;;;;8.90;6.20;;;7.50;99.90;;;;;;5010857;28;20033;-47
2022/02/15 01:14:50;;;;;;;9.02;5.53;;;7.50;99.90;;;;;;4957740;28;20045;-48
2022/02/15 01:17:16;;;;;;;8.57;5.10;;;7.50;99.90;;;;;;5011686;28;20037;-49
2022/02/15 01:19:42;;;;;;;4.40;3.75;;;7.50;99.90;;;;;;5012962;28;20060;-46
2022/02/15 01:22:07;;;;;;;7.30;4.88;;;7.60;99.90;;;;;;5014121;28;20100;-49
2022/02/15 01:24:33;;;;;;;7.57;4.68;;;7.60;99.90;;;;;;4980206;28;20046;-45
2022/02/15 01:26:59;;;;;;;10.30;7.22;;;7.60;99.90;;;;;;5010731;28;20048;-48
2022/02/15 01:29:25;;;;;;;9.80;5.82;;;7.40;99.90;;;;;;5009279;28;20038;-48
2022/02/15 01:31:51;;;;;;;6.90;5.07;;;7.40;99.90;;;;;;5014367;28;20043;-48
2022/02/15 01:34:17;;;;;;;8.10;5.40;;;7.30;99.90;;;;;;5013293;28;20058;-48
2022/02/15 01:36:43;;;;;;;7.25;5.40;;;7.00;99.90;;;;;;5010097;28;20375;-47
2022/02/15 01:39:09;;;;;;;10.23;6.95;;;7.10;99.90;;;;;;5014736;28;20037;-48
2022/02/15 01:41:35;;;;;;;13.02;7.63;;;7.20;99.90;;;;;;5008293;28;20028;-50
2022/02/15 01:44:01;;;;;;;13.10;7.53;;;7.20;99.90;;;;;;5011193;28;20061;-50
2022/02/15 01:46:27;;;;;;;13.63;8.68;;;7.30;99.90;;;;;;5012444;28;20033;-49
2022/02/15 01:48:53;;;;;;;13.93;8.90;;;7.30;99.90;;;;;;5014277;28;20030;-48
2022/02/15 01:51:18;;;;;;;14.15;8.15;;;7.40;99.90;;;;;;5009569;28;20061;-48
2022/02/15 01:53:44;;;;;;;10.05;6.20;;;7.20;99.90;;;;;;5028730;28;20042;-48
2022/02/15 01:56:13;;;;;;;9.32;5.47;;;7.10;99.90;;;;;;5010427;28;20120;-49
2022/02/15 01:58:39;;;;;;;11.20;7.10;;;7.00;99.90;;;;;;5005303;28;20045;-45
2022/02/15 02:01:05;;;;;;;9.98;6.15;;;7.00;99.90;;;;;;5007159;28;20081;-48
2022/02/15 02:03:31;;;;;;;12.35;6.82;;;7.10;99.90;;;;;;5014231;28;20448;-49
2022/02/15 02:05:57;;;;;;;13.68;7.57;;;7.00;99.90;;;;;;5012557;28;20429;-48
2022/02/15 02:08:28;;;;;;;8.02;6.00;;;6.90;99.90;;;;;;5025589;28;20045;-47
2022/02/15 02:10:55;;;;;;;10.77;6.22;;;6.90;99.90;;;;;;5010805;28;20034;-49
2022/02/15 02:13:21;;;;;;;7.13;5.03;;;6.80;99.90;;;;;;5009758;28;20042;-50
2022/02/15 02:15:48;;;;;;;8.95;5.43;;;6.70;99.90;;;;;;5011527;28;20038;-49
2022/02/15 02:18:15;;;;;;;7.35;5.40;;;6.60;99.90;;;;;;5010638;28;20026;-47
2022/02/15 02:20:42;;;;;;;10.18;6.13;;;6.60;99.90;;;;;;5027083;28;20041;-48
2022/02/15 02:23:19;;;;;;;9.95;5.97;;;6.60;99.90;;;;;;5010422;28;20394;-48
2022/02/15 02:25:45;;;;;;;6.78;5.18;;;6.70;99.90;;;;;;5005716;28;20033;-48
2022/02/15 02:28:11;;;;;;;9.25;6.13;;;6.70;99.90;;;;;;5013610;28;20485;-47
2022/02/15 02:30:38;;;;;;;8.63;6.05;;;6.70;99.90;;;;;;5004750;28;20026;-48
2022/02/15 02:33:04;;;;;;;9.77;6.38;;;6.70;99.90;;;;;;5009406;28;20034;-48
2022/02/15 02:35:30;;;;;;;9.60;6.43;;;6.70;99.90;;;;;;5009590;28;20050;-48
2022/02/15 02:37:56;;;;;;;8.80;5.50;;;6.60;99.90;;;;;;5011029;28;20046;-48
2022/02/15 02:40:22;;;;;;;10.18;6.47;;;6.60;99.90;;;;;;5008987;28;20041;-46
2022/02/15 02:42:48;;;;;;;10.45;6.28;;;6.60;99.90;;;;;;4976163;28;20030;-47
2022/02/15 02:45:16;;;;;;;10.50;6.63;;;6.60;99.90;;;;;;5011436;28;20390;-47
2022/02/15 02:47:47;;;;;;;6.00;3.83;;;6.60;99.90;;;;;;4975659;28;20045;-50
2022/02/15 02:50:15;;;;;;;5.85;3.35;;;6.60;99.90;;;;;;5006112;28;20050;-48
2022/02/15 02:52:42;;;;;;;6.75;4.65;;;6.60;99.90;;;;;;4994592;28;20048;-48
2022/02/15 02:55:08;;;;;;;7.15;4.53;;;6.70;99.90;;;;;;5010040;28;20054;-45
2022/02/15 02:57:37;;;;;;;7.65;5.13;;;6.70;99.90;;;;;;4961249;28;20070;-48
2022/02/15 03:00:13;;;;;;;6.38;4.38;;;6.70;99.90;;;;;;4972404;28;20042;-48
2022/02/15 03:02:39;;;;;;;5.45;4.13;;;6.60;99.90;;;;;;5008510;28;20068;-49
2022/02/15 03:05:05;;;;;;;8.30;5.05;;;6.60;99.90;;;;;;5009783;28;20112;-48
2022/02/15 03:07:31;;;;;;;5.63;4.00;;;6.60;99.90;;;;;;4992137;28;20046;-48
2022/02/15 03:09:57;;;;;;;7.30;5.25;;;6.60;99.90;;;;;;5011012;28;20332;-47
2022/02/15 03:12:23;;;;;;;6.60;4.88;;;6.60;99.90;;;;;;5010119;28;20482;-49
2022/02/15 03:14:48;;;;;;;6.53;4.68;;;6.60;99.90;;;;;;5010320;28;20054;-48
2022/02/15 03:17:16;;;;;;;7.53;5.20;;;6.70;99.90;;;;;;5010991;28;20451;-48
2022/02/15 03:19:42;;;;;;;8.07;5.50;;;6.60;99.90;;;;;;5013544;28;20038;-46
2022/02/15 03:22:07;;;;;;;7.47;4.80;;;6.70;99.90;;;;;;5009752;28;20144;-48
2022/02/15 03:24:33;;;;;;;7.85;5.47;;;6.50;99.90;;;;;;5011635;28;20022;-47
2022/02/15 03:27:00;;;;;;;9.23;5.10;;;6.40;99.90;;;;;;5007681;28;20113;-49
2022/02/15 03:29:26;;;;;;;9.00;5.45;;;6.20;99.90;;;;;;5010238;28;20383;-49
2022/02/15 03:31:52;;;;;;;8.65;5.22;;;6.20;99.90;;;;;;5009556;28;20034;-46
2022/02/15 03:34:18;;;;;;;7.28;4.90;;;6.20;99.90;;;;;;5012513;28;20056;-50
2022/02/15 03:36:44;;;;;;;6.00;3.75;;;6.20;99.90;;;;;;5009611;28;20577;-50
2022/02/15 03:39:10;;;;;;;4.75;4.03;;;6.30;99.90;;;;;;5012649;28;20025;-50
2022/02/15 03:44:22;;;;;;;14.25;7.03;;;6.20;99.90;;;;;;5016254;28;20049;-48
2022/02/15 03:46:48;;;;;;;6.82;5.22;;;6.00;99.90;;;;;;5026074;28;20034;-48
2022/02/15 03:49:15;;;;;;;7.35;4.35;;;5.90;99.90;;;;;;5012830;28;20381;-48
2022/02/15 03:51:41;;;;;;;13.93;6.45;;;;;;;;;;5014359;28;20060;-48
2022/02/15 03:54:07;;;;;;;9.90;4.80;;;5.70;99.90;;;;;;5016231;28;20500;-48
2022/02/15 03:56:34;;;;;;;4.97;3.88;;;5.70;99.90;;;;;;5013716;28;20070;-49
2022/02/15 03:59:01;;;;;;;6.72;4.68;;;5.80;99.90;;;;;;5012353;28;20036;-46
2022/02/15 04:01:27;;;;;;;7.68;4.43;;;5.90;99.90;;;;;;5013007;28;20049;-46
2022/02/15 04:03:53;;;;;;;7.32;4.25;;;6.10;99.90;;;;;;5015384;28;20025;-50
2022/02/15 04:06:19;;;;;;;10.40;6.60;;;6.00;99.90;;;;;;5025240;28;20088;-47
2022/02/15 04:08:45;;;;;;;12.77;6.70;;;6.00;99.90;;;;;;4982340;28;20038;-46
2022/02/15 04:11:12;;;;;;;14.85;7.50;;;5.90;99.90;;;;;;5013097;28;20022;-47
2022/02/15 04:13:38;;;;;;;9.25;5.63;;;6.00;99.90;;;;;;5008954;28;20080;-46
2022/02/15 04:16:05;;;;;;;9.82;6.20;;;6.10;99.90;;;;;;5028749;28;20398;-46
2022/02/15 04:18:32;;;;;;;9.77;6.55;;;6.20;99.90;;;;;;5007879;28;20018;-48
2022/02/15 04:20:58;;;;;;;9.93;6.00;;;6.00;99.90;;;;;;5010956;28;20116;-48
2022/02/15 04:23:24;;;;;;;7.75;4.65;;;6.00;99.90;;;;;;5009366;28;20474;-48
2022/02/15 04:25:51;;;;;;;8.05;4.45;;;6.10;99.90;;;;;;5010544;28;20050;-48
2022/02/15 04:28:17;;;;;;;6.93;4.13;;;6.10;99.90;;;;;;5009786;28;20030;-47
2022/02/15 04:30:43;;;;;;;6.40;3.85;;;6.10;99.90;;;;;;5014097;28;20025;-49
2022/02/15 04:33:09;;;;;;;6.47;4.18;;;6.20;99.90;;;;;;5010861;28;20089;-44
2022/02/15 04:35:35;;;;;;;6.30;3.80;;;6.20;99.90;;;;;;5013849;28;20410;-46
2022/02/15 04:38:02;;;;;;;6.50;3.35;;;6.30;99.90;;;;;;5029193;28;20030;-46
2022/02/15 04:40:28;;;;;;;5.32;3.58;;;6.40;99.90;;;;;;5013596;28;20125;-48
2022/02/15 04:42:54;;;;;;;6.20;3.85;;;6.40;99.90;;;;;;5014584;28;20045;-46
2022/02/15 04:45:19;;;;;;;4.85;3.53;;;6.40;99.90;;;;;;4972733;28;20066;-47
2022/02/15 04:47:45;;;;;;;8.07;4.47;;;6.40;99.90;;;;;;5011406;28;20046;-47
2022/02/15 04:50:11;;;;;;;5.25;3.85;;;6.50;99.90;;;;;;5010715;28;20496;-47
2022/02/15 04:52:37;;;;;;;6.95;4.32;;;6.40;99.90;;;;;;5013489;28;20030;-49
2022/02/15 04:55:04;;;;;;;5.50;3.55;;;6.40;99.90;;;;;;5011804;28;20389;-48
2022/02/15 04:57:30;;;;;;;6.47;3.92;;;6.40;99.90;;;;;;5011135;28;20030;-48
2022/02/15 04:59:55;;;;;;;9.05;6.07;;;6.40;99.90;;;;;;5012677;28;20033;-49
2022/02/15 05:02:21;;;;;;;4.97;4.10;;;6.30;99.90;;;;;;5007302;28;20050;-49
2022/02/15 05:04:50;;;;;;;6.68;4.13;;;6.40;99.90;;;;;;5009370;28;20120;-46
2022/02/15 05:07:20;;;;;;;6.28;4.40;;;6.30;99.90;;;;;;5009837;28;20442;-48
2022/02/15 05:09:46;;;;;;;7.60;4.85;;;6.40;99.90;;;;;;5011786;28;20049;-46
2022/02/15 05:12:13;;;;;;;18.45;10.10;;;6.40;99.90;;;;;;5007436;28;20049;-49
2022/02/15 05:14:39;;;;;;;18.25;9.60;;;6.40;99.90;;;;;;5008889;28;20129;-47
2022/02/15 05:17:05;;;;;;;16.13;9.50;;;6.30;99.90;;;;;;4978529;28;20081;-46
2022/02/15 05:19:32;;;;;;;15.13;7.82;;;6.20;99.90;;;;;;5005559;28;20096;-48
2022/02/15 05:21:59;;;;;;;18.05;9.52;;;6.20;99.90;;;;;;4977770;28;20080;-50
2022/02/15 05:24:25;;;;;;;12.82;7.82;;;6.20;99.90;;;;;;5007782;28;20184;-49
2022/02/15 05:26:51;;;;;;;9.07;5.68;;;6.20;99.90;;;;;;5010955;28;20042;-48
2022/02/15 05:29:16;;;;;;;11.15;7.63;;;6.00;99.90;;;;;;5011062;28;20038;-48
2022/02/15 05:31:42;;;;;;;6.32;4.50;;;6.00;99.90;;;;;;5010820;28;20552;-49
2022/02/15 05:34:08;;;;;;;9.10;5.40;;;5.90;99.90;;;;;;5008876;28;20034;-48
2022/02/15 05:36:35;;;;;;;9.68;5.40;;;5.90;99.90;;;;;;4994509;28;20053;-47
2022/02/15 05:39:00;;;;;;;5.85;4.30;;;5.90;99.90;;;;;;5011337;28;20026;-47
2022/02/15 05:41:26;;;;;;;9.32;5.05;;;5.70;99.90;;;;;;5011942;28;20034;-48
2022/02/15 05:43:52;;;;;;;10.13;6.28;;;5.80;99.90;;;;;;5011487;28;20405;-46
2022/02/15 05:46:18;;;;;;;10.10;6.07;;;5.70;99.90;;;;;;5013339;28;20080;-48
2022/02/15 05:48:43;;;;;;;9.70;6.20;;;5.70;99.90;;;;;;5009695;28;20060;-48
2022/02/15 05:51:09;;;;;;;11.50;6.75;;;5.70;99.90;;;;;;5012736;28;20029;-45
2022/02/15 05:53:35;;;;;;;9.65;6.50;;;5.70;99.90;;;;;;5012197;28;20382;-48
2022/02/15 05:56:02;;;;;;;11.70;7.22;;;5.60;99.90;;;;;;5010542;28;20042;-47
2022/02/15 05:58:30;;;;;;;12.10;8.23;;;5.50;99.90;;;;;;5010600;28;20080;-48
2022/02/15 06:01:00;;;;;;;13.32;8.38;;;5.40;99.90;;;;;;5013251;28;20433;-45
2022/02/15 06:06:11;;;;;;;11.45;7.50;;;5.70;99.90;;;;;;5013921;28;20119;-46
2022/02/15 06:08:37;;;;;;;11.80;7.70;;;5.80;99.90;;;;;;5007435;28;20089;-45
2022/02/15 06:11:03;;;;;;;12.68;7.45;;;5.90;99.90;;;;;;5012253;28;20371;-45
2022/02/15 06:13:30;;;;;;;14.40;9.68;;;6.00;99.90;;;;;;5028339;28;20120;-48
2022/02/15 06:15:56;;;;;;;17.05;12.23;;;6.30;99.90;;;;;;5008608;28;20042;-47
2022/02/15 06:18:22;;;;;;;28.85;20.35;;;7.50;99.90;;;;;;5011958;28;20034;-46
2022/02/15 06:20:48;;;;;;;31.20;19.77;;;8.90;99.90;;;;;;5013971;28;20077;-47
2022/02/15 06:23:14;;;;;;;28.88;17.17;;;10.30;99.90;;;;;;5009311;28;20053;-46
2022/02/15 06:25:40;;;;;;;32.65;15.63;;;10.90;99.90;;;;;;5008334;28;20022;-46
2022/02/15 06:28:06;;;;;;;33.10;17.42;;;10.90;99.90;;;;;;5011792;28;20032;-47
2022/02/15 06:30:33;;;;;;;28.55;15.98;;;12.60;99.90;;;;;;5009887;28;20034;-46
2022/02/15 06:32:59;;;;;;;22.70;12.15;;;13.30;99.90;;;;;;5008995;28;20034;-45
2022/02/15 06:35:25;;;;;;;17.73;9.85;;;13.90;99.90;;;;;;5008005;28;20115;-49
2022/02/15 06:37:51;;;;;;;10.00;6.28;;;14.70;99.90;;;;;;5010734;28;20025;-45
2022/02/15 06:40:18;;;;;;;8.43;5.93;;;;;;;;;;5005164;28;20042;-49
2022/02/15 06:42:45;;;;;;;9.35;6.13;;;12.90;99.90;;;;;;5013369;28;20038;-48
2022/02/15 06:45:11;;;;;;;11.77;7.22;;;12.40;99.90;;;;;;5007580;28;20522;-48
2022/02/15 06:47:37;;;;;;;8.07;6.25;;;12.10;99.90;;;;;;5011321;28;20113;-48
2022/02/15 06:50:05;;;;;;;10.00;6.18;;;10.90;99.90;;;;;;5010622;28;20049;-47
2022/02/15 06:52:31;;;;;;;9.10;6.15;;;9.90;99.90;;;;;;5009826;28;20117;-46
2022/02/15 06:54:57;;;;;;;8.13;5.35;;;9.80;99.90;;;;;;4977807;28;20034;-46
2022/02/15 06:57:23;;;;;;;11.40;5.53;;;9.80;99.90;;;;;;5011176;28;20029;-45
2022/02/15 06:59:49;;;;;;;9.13;6.28;;;9.40;99.90;;;;;;5015391;28;20557;-45
2022/02/15 07:02:19;;;;;;;13.10;8.57;;;9.10;99.90;;;;;;5011438;28;20058;-49
2022/02/15 07:04:48;;;;;;;9.88;6.45;;;9.00;99.90;;;;;;5005834;28;20120;-48
2022/02/15 07:07:14;;;;;;;8.20;5.75;;;8.80;99.90;;;;;;5009257;28;20462;-49
2022/02/15 07:09:41;;;;;;;10.27;6.07;;;8.80;99.90;;;;;;5012059;28;20450;-49
2022/02/15 07:12:08;;;;;;;11.07;7.90;;;8.40;99.90;;;;;;5011581;28;20041;-46
2022/02/15 07:14:35;;;;;;;15.48;9.38;;;8.40;99.90;;;;;;4971308;28;20038;-45
2022/02/15 07:17:01;;;;;;;16.05;10.27;;;8.40;99.90;;;;;;4973720;28;20054;-47
2022/02/15 07:19:29;;;;;;;11.95;9.25;;;8.50;99.90;;;;;;4975598;28;20034;-49
2022/02/15 07:21:57;;;;;;;13.20;8.75;;;8.70;99.90;;;;;;4973455;28;20031;-46
2022/02/15 07:24:22;;;;;;;10.95;9.00;;;8.80;99.90;;;;;;4974642;28;20471;-47
2022/02/15 07:26:48;;;;;;;49.88;27.15;;;8.60;99.90;;;;;;4971603;28;20037;-49
2022/02/15 07:29:15;;;;;;;90.15;45.95;;;9.10;99.90;;;;;;4970082;28;20440;-46
2022/02/15 07:31:41;;;;;;;58.17;30.10;;;9.30;99.90;;;;;;4973628;28;20039;-48
2022/02/15 07:34:06;;;;;;;45.75;25.95;;;8.90;99.90;;;;;;4958718;28;20050;-47
2022/02/15 07:36:32;;;;;;;82.90;45.08;;;9.00;99.90;;;;;;4979788;28;20169;-49
2022/02/15 07:38:58;;;;;;;31.33;19.13;;;8.90;99.90;;;;;;4960827;28;20501;-48
2022/02/15 07:41:24;;;;;;;22.27;12.75;;;8.80;99.90;;;;;;4973828;28;20112;-48
2022/02/15 07:43:50;;;;;;;12.40;7.15;;;8.80;99.90;;;;;;4978080;28;20038;-48
2022/02/15 07:46:16;;;;;;;10.10;7.20;;;8.80;99.90;;;;;;4987233;28;20510;-48
2022/02/15 07:48:41;;;;;;;9.02;6.88;;;8.80;99.90;;;;;;4984750;28;20363;-49
2022/02/15 07:51:07;;;;;;;8.95;6.32;;;8.70;99.90;;;;;;4991729;28;20048;-49
2022/02/15 07:53:33;;;;;;;11.15;7.72;;;8.90;99.90;;;;;;5025670;28;20045;-46
2022/02/15 07:55:59;;;;;;;12.18;8.88;;;;;;;;;;5011260;28;20034;-47
2022/02/15 07:58:25;;;;;;;14.27;9.73;;;9.40;99.90;;;;;;5010375;28;20184;-48
2022/02/15 08:00:51;;;;;;;16.83;11.85;;;9.40;99.90;;;;;;5014598;28;20116;-47
2022/02/15 08:03:17;;;;;;;34.95;25.02;;;9.60;99.90;;;;;;5014493;28;20053;-46
2022/02/15 08:05:43;;;;;;;25.02;19.45;;;9.60;99.90;;;;;;5030395;28;20033;-48
2022/02/15 08:08:09;;;;;;;29.98;19.35;;;9.80;99.90;;;;;;5042072;28;20092;-49
2022/02/15 08:10:35;;;;;;;21.10;14.65;;;10.60;99.90;;;;;;5028541;28;20036;-48
2022/02/15 08:13:02;;;;;;;23.02;15.40;;;10.60;99.90;;;;;;5038795;28;20033;-48
2022/02/15 08:15:30;;;;;;;55.53;27.90;;;10.80;99.90;;;;;;5018160;28;20049;-48
2022/02/15 08:17:58;;;;;;;419.88;169.27;;;10.90;99.90;;;;;;5013931;28;20468;-46
2022/02/15 08:20:24;;;;;;;77.15;45.40;;;10.80;99.90;;;;;;5011997;28;20140;-45
2022/02/15 08:22:51;;;;;;;63.40;33.03;;;10.90;99.90;;;;;;5015976;28;20076;-50
2022/02/15 08:25:17;;;;;;;57.10;31.17;;;11.10;99.90;;;;;;5001781;28;20555;-46
2022/02/15 08:27:44;;;;;;;43.70;25.08;;;11.10;99.90;;;;;;5016995;28;20076;-46
2022/02/15 08:30:11;;;;;;;34.22;21.80;;;10.90;99.90;;;;;;5016626;28;20037;-48
2022/02/15 08:32:37;;;;;;;36.15;23.65;;;11.10;99.90;;;;;;5001114;28;20382;-47
2022/02/15 08:35:05;;;;;;;37.92;25.83;;;11.30;99.90;;;;;;5016948;28;20044;-46
2022/02/15 08:37:34;;;;;;;30.27;19.25;;;10.90;99.90;;;;;;4968108;28;20055;-48
2022/02/15 08:40:01;;;;;;;21.90;14.57;;;10.30;99.90;;;;;;5021329;28;20113;-44
2022/02/15 08:42:27;;;;;;;17.70;13.00;;;10.60;99.90;;;;;;5019758;28;20486;-59
2022/02/15 08:44:53;;;;;;;13.80;10.38;;;10.60;99.90;;;;;;4958016;28;20133;-47
2022/02/15 08:47:21;;;;;;;13.10;9.05;;;10.50;99.90;;;;;;5007100;28;20038;-49
2022/02/15 08:49:50;;;;;;;13.43;10.18;;;10.50;99.90;;;;;;5005005;28;20088;-58
2022/02/15 08:52:16;;;;;;;17.67;13.40;;;10.70;99.90;;;;;;5008505;28;20041;-50
2022/02/15 08:54:41;;;;;;;20.60;15.13;;;11.10;99.90;;;;;;5012768;28;20028;-47
2022/02/15 08:57:09;;;;;;;22.77;15.43;;;11.50;99.90;;;;;;4998634;28;20049;-50
2022/02/15 08:59:36;;;;;;;36.70;26.48;;;11.90;99.90;;;;;;5015109;28;20375;-50
2022/02/15 09:02:03;;;;;;;22.17;14.73;;;12.70;99.90;;;;;;5011469;28;20456;-50
2022/02/15 09:04:28;;;;;;;16.40;12.68;;;13.70;99.90;;;;;;5022010;28;20449;-49
2022/02/15 09:06:55;;;;;;;14.18;10.40;;;;;;;;;;5018624;28;20045;-49
2022/02/15 09:09:21;;;;;;;10.70;8.15;;;15.70;99.90;;;;;;5008696;28;20489;-49
2022/02/15 09:11:47;;;;;;;10.90;7.32;;;;;;;;;;5009495;28;20037;-50
2022/02/15 09:14:14;;;;;;;10.32;8.00;;;14.20;99.90;;;;;;5024562;28;20513;-48
2022/02/15 09:16:40;;;;;;;10.85;8.18;;;13.80;99.90;;;;;;5011846;28;20041;-48
2022/02/15 09:19:05;;;;;;;11.40;8.23;;;13.60;99.90;;;;;;5023786;28;20474;-48
2022/02/15 09:21:32;;;;;;;12.60;7.45;;;13.50;99.90;;;;;;5005735;28;20613;-51
2022/02/15 09:23:59;;;;;;;10.18;6.10;;;;;;;;;;5013016;28;20061;-54
2022/02/15 09:26:25;;;;;;;11.57;9.63;;;;;;;;;;5010853;28;20041;-52
2022/02/15 09:28:52;;;;;;;16.65;13.18;;;;;;;;;;5010647;28;20026;-54
2022/02/15 09:31:19;;;;;;;24.45;16.90;;;;;;;;;;5007290;28;20504;-53
2022/02/15 09:33:48;;;;;;;17.25;15.45;;;;;;;;;;5013477;28;20444;-52
2022/02/15 09:36:14;;;;;;;17.63;15.93;;;;;;;;;;5014244;28;20048;-52
2022/02/15 09:38:40;;;;;;;16.45;14.55;;;20.00;99.90;;;;;;5019888;28;20041;-52
2022/02/15 09:41:07;;;;;;;17.13;14.23;;;;;;;;;;5024816;28;20405;-54
2022/02/15 09:43:36;;;;;;;20.23;15.40;;;;;;;;;;5006654;28;20042;-53
2022/02/15 09:46:02;;;;;;;14.85;13.27;;;;;;;;;;5008660;28;20412;-52
2022/02/15 09:48:29;;;;;;;13.98;12.57;;;24.10;95.10;;;;;;5010083;28;20420;-49
2022/02/15 09:50:58;;;;;;;14.05;11.73;;;24.00;91.90;;;;;;5012222;28;20054;-51
2022/02/15 09:53:24;;;;;;;14.50;12.35;;;;;;;;;;5013815;28;20033;-50
2022/02/15 09:55:50;;;;;;;13.93;11.05;;;24.90;99.90;;;;;;5009457;28;20092;-49
2022/02/15 09:58:16;;;;;;;13.10;11.35;;;;;;;;;;5011060;28;20047;-50
2022/02/15 10:00:48;;;;;;;12.45;11.25;;;;;;;;;;5012109;28;20432;-49
2022/02/15 10:03:15;;;;;;;13.35;10.50;;;25.70;87.80;;;;;;5010231;28;20478;-50
2022/02/15 10:05:47;;;;;;;9.90;9.00;;;26.00;85.40;;;;;;5010658;28;20037;-51
2022/02/15 10:08:13;;;;;;;11.18;8.63;;;24.60;83.70;;;;;;5011483;28;20030;-49
2022/02/15 10:10:39;;;;;;;9.00;8.20;;;24.90;85.60;;;;;;5010235;28;20045;-51
2022/02/15 10:13:09;;;;;;;8.10;7.20;;;;;;;;;;5009978;28;20169;-50
2022/02/15 10:15:37;;;;;;;10.65;9.40;;;26.30;99.90;;;;;;5010266;28;20132;-49
2022/02/15 10:18:17;;;;;;;12.27;11.05;;;27.00;81.90;;;;;;5007708;28;20548;-51
2022/02/15 10:20:46;;;;;;;10.15;9.20;;;25.70;84.20;;;;;;5018281;28;20064;-47
2022/02/15 10:23:19;;;;;;;11.25;10.48;;;;;;;;;;5009914;28;20030;-46
2022/02/15 10:25:47;;;;;;;11.25;10.45;;;25.30;78.70;;;;;;5011197;28;20382;-47
2022/02/15 10:28:23;;;;;;;7.85;7.18;;;24.70;79.80;;;;;;5017363;28;20025;-46
2022/02/15 10:30:50;;;;;;;4.78;2.53;;;24.60;80.90;;;;;;5018240;28;20144;-46
2022/02/15 10:33:17;;;;;;;11.13;10.13;;;22.40;80.70;;;;;;5029685;28;20041;-46
2022/02/15 10:35:59;;;;;;;9.65;8.73;;;22.70;84.10;;;;;;5020201;28;20389;-47
2022/02/15 10:38:35;;;;;;;12.32;11.25;;;24.20;84.00;;;;;;5033745;28;20381;-46
2022/02/15 10:41:07;;;;;;;10.95;9.95;;;23.90;82.60;;;;;;5031169;28;20112;-45
2022/02/15 10:43:51;;;;;;;;;;;23.80;82.10;;;;;;5025999;28;20124;-44
2022/02/15 10:46:22;;;;;;;11.75;11.00;;;24.30;81.20;;;;;;5027419;28;20386;-47
2022/02/15 10:48:49;;;;;;;7.72;7.13;;;24.20;80.00;;;;;;4984062;28;20116;-47
2022/02/15 10:51:16;;;;;;;9.10;8.45;;;24.80;79.10;;;;;;5031613;28;20195;-47
2022/02/15 10:53:42;;;;;;;8.25;7.60;;;24.40;77.80;;;;;;5000436;28;20124;-48
2022/02/15 10:56:08;;;;;;;9.25;8.43;;;24.60;79.40;;;;;;5027440;28;20115;-47
2022/02/15 10:58:34;;;;;;;6.47;5.88;;;24.60;79.00;;;;;;5037637;28;20183;-52
2022/02/15 11:01:05;;;;;;;8.50;7.80;;;24.10;78.70;;;;;;5035002;28;20029;-48
2022/02/15 11:03:34;;;;;;;5.68;5.13;;;24.90;77.80;;;;;;5033317;28;20049;-48
2022/02/15 11:06:01;;;;;;;10.60;8.05;;;24.20;78.00;;;;;;5030698;28;20052;-45
2022/02/15 11:08:28;;;;;;;6.97;5.28;;;;;;;;;;5033653;28;20045;-47
2022/02/15 11:11:35;;;;;;;5.10;4.60;;;25.30;76.30;;;;;;5019405;28;20120;-48
2022/02/15 11:14:01;;;;;;;6.45;4.22;;;24.90;76.70;;;;;;4996683;28;20040;-45
2022/02/15 11:16:32;;;;;;;6.78;6.18;;;25.00;76.80;;;;;;4996710;28;20402;-50
2022/02/15 11:19:08;;;;;;;6.25;4.18;;;24.50;77.40;;;;;;4938703;28;20125;-48
2022/02/15 11:21:35;;;;;;;8.93;5.82;;;24.90;76.60;;;;;;5000262;28;20640;-44
2022/02/15 11:24:07;;;;;;;9.05;4.50;;;24.10;77.20;;;;;;4991012;28;20157;-45
2022/02/15 11:26:41;;;;;;;4.38;3.97;;;24.60;76.90;;;;;;4987135;28;20478;-46
2022/02/15 11:29:25;;;;;;;4.30;2.75;;;24.10;78.10;;;;;;4986825;28;20030;-43
2022/02/15 11:31:53;;;;;;;7.05;3.95;;;23.60;74.80;;;;;;4989315;28;20474;-41
2022/02/15 11:34:31;;;;;;;6.63;3.95;;;24.10;74.60;;;;;;4941770;28;20042;-44
2022/02/15 11:36:57;;;;;;;18.48;10.68;;;23.50;73.80;;;;;;4987232;28;20090;-45
2022/02/15 11:39:24;;;;;;;13.70;7.97;;;;;;;;;;4985128;28;20061;-44
2022/02/15 11:41:51;;;;;;;16.90;8.20;;;;;;;;;;4972322;28;20079;-45
2022/02/15 11:44:38;;;;;;;7.38;4.20;;;;;;;;;;4996783;28;20037;-43
2022/02/15 11:47:11;;;;;;;10.23;4.88;;;;;;;;;;4989530;28;20026;-43
2022/02/15 11:49:52;;;;;;;8.52;4.40;;;26.50;71.10;;;;;;4994629;28;20080;-43
2022/02/15 11:52:18;;;;;;;9.50;5.75;;;26.70;72.10;;;;;;5011955;28;20703;-44
2022/02/15 11:54:44;;;;;;;5.47;4.25;;;27.10;80.90;;;;;;5010589;28;20418;-43
2022/02/15 11:57:10;;;;;;;4.60;4.07;;;25.20;70.60;;;;;;4970758;28;20121;-43
2022/02/15 11:59:36;;;;;;;6.57;3.85;;;24.00;72.50;;;;;;5009194;28;20072;-44
2022/02/15 12:02:04;;;;;;;6.85;3.28;;;24.60;80.70;;;;;;4978361;28;20041;-44
2022/02/15 12:04:30;;;;;;;4.82;3.10;;;23.80;73.10;;;;;;5011503;28;20037;-43
2022/02/15 12:07:04;;;;;;;5.07;3.00;;;22.60;72.90;;;;;;5008807;28;20091;-43
2022/02/15 12:09:33;;;;;;;15.15;4.25;;;23.40;73.80;;;;;;4980878;28;20089;-44
2022/02/15 12:11:59;;;;;;;15.30;4.82;;;24.30;73.60;;;;;;5011570;28;20096;-45
2022/02/15 12:14:27;;;;;;;6.07;2.78;;;;;;;;;;5009060;28;20026;-43
2022/02/15 12:16:55;;;;;;;3.90;2.75;;;26.10;70.90;;;;;;4979828;28;20052;-44
2022/02/15 12:19:22;;;;;;;9.05;4.60;;;;;;;;;;5008748;28;20027;-44
2022/02/15 12:21:47;;;;;;;2.05;1.33;;;24.50;72.60;;;;;;5011379;28;20061;-42
2022/02/15 12:24:14;;;;;;;2.50;1.55;;;22.90;72.00;;;;;;4966969;28;20116;-43
2022/02/15 12:26:41;;;;;;;3.53;1.70;;;21.70;73.50;;;;;;5028241;28;20046;-44
2022/02/15 12:29:08;;;;;;;2.45;1.50;;;21.70;73.50;;;;;;5012573;28;20034;-44
2022/02/15 12:31:34;;;;;;;3.20;1.70;;;21.80;74.20;;;;;;5013444;28;20038;-45
2022/02/15 12:34:01;;;;;;;4.20;2.47;;;;;;;;;;5018419;28;20462;-46
2022/02/15 12:36:28;;;;;;;4.22;1.90;;;20.70;74.90;;;;;;5011748;28;20049;-46
2022/02/15 12:38:54;;;;;;;1.65;1.20;;;20.70;76.40;;;;;;5013637;28;20029;-47
2022/02/15 12:41:22;;;;;;;2.28;1.15;;;20.20;76.20;;;;;;5016842;28;20042;-45
2022/02/15 12:43:59;;;;;;;2.28;1.60;;;19.50;77.90;;;;;;5012414;28;20129;-45
2022/02/15 12:46:26;;;;;;;4.28;2.53;;;19.10;78.20;;;;;;5010225;28;20096;-44
2022/02/15 12:48:52;;;;;;;6.63;4.82;;;18.90;79.30;;;;;;5014000;28;20133;-45
2022/02/15 12:51:19;;;;;;;4.15;2.15;;;19.00;80.50;;;;;;5030039;28;20113;-44
2022/02/15 12:53:55;;;;;;;2.40;1.40;;;19.10;79.60;;;;;;5017029;28;20025;-44
2022/02/15 12:56:22;;;;;;;4.45;1.55;;;19.10;78.80;;;;;;5016238;28;20117;-46
2022/02/15 12:58:49;;;;;;;4.05;1.70;;;18.90;78.80;;;;;;5024667;28;20033;-45
2022/02/15 13:01:17;;;;;;;4.90;2.10;;;19.10;79.80;;;;;;5022595;28;20064;-44